createdAt,value
2017-07-23T07:27:33.846Z,996.3
2017-07-23T07:28:35.217Z,996.3
2017-07-23T07:29:59.491Z,996.3
2017-07-23T07:30:19.992Z,996.4
2017-07-23T07:32:21.343Z,996.3
2017-07-23T07:34:45.507Z,996.4
2017-07-23T07:35:43.728Z,996.3
2017-07-23T07:40:45.032Z,996.3
2017-07-23T07:46:05.967Z,996.4
2017-07-23T07:51:07.282Z,996.4
2017-07-23T07:56:28.219Z,996.5
2017-07-23T08:01:29.531Z,996.5
2017-07-23T08:06:50.469Z,996.6
2017-07-23T08:11:51.785Z,996.6
2017-07-23T08:17:12.723Z,996.6
2017-07-23T08:22:14.037Z,996.6
2017-07-23T08:27:34.978Z,996.7
2017-07-23T08:32:36.299Z,996.7
2017-07-23T08:37:57.254Z,996.6
2017-07-23T08:42:58.571Z,996.6
2017-07-23T08:48:19.513Z,996.6
2017-07-23T08:53:20.829Z,996.6
2017-07-23T08:58:41.776Z,996.6
2017-07-23T09:03:43.099Z,996.6
2017-07-23T09:09:04.039Z,996.7
2017-07-23T09:14:05.358Z,996.8
2017-07-23T09:19:26.299Z,996.8
2017-07-23T09:24:27.619Z,996.8
2017-07-23T09:29:48.566Z,996.8
2017-07-23T09:34:49.883Z,996.8
2017-07-23T09:40:10.827Z,996.9
2017-07-23T09:45:12.143Z,996.8
2017-07-23T09:50:33.583Z,996.9
2017-07-23T09:55:34.905Z,996.8
2017-07-23T10:00:55.846Z,996.8
2017-07-23T10:05:57.165Z,996.9
2017-07-23T10:11:18.126Z,996.8
2017-07-23T10:16:19.448Z,996.7
2017-07-23T10:21:40.389Z,996.7
2017-07-23T10:26:41.709Z,996.9
2017-07-23T10:32:02.678Z,996.9
2017-07-23T10:37:03.997Z,996.9
2017-07-23T10:42:24.943Z,996.8
2017-07-23T10:47:26.387Z,996.8
2017-07-23T10:52:48.593Z,997.0
2017-07-23T10:57:51.259Z,996.9
2017-07-23T11:03:12.176Z,997.0
2017-07-23T11:08:14.261Z,996.9
2017-07-23T11:13:37.648Z,996.9
2017-07-23T11:18:39.069Z,996.8
2017-07-23T11:24:00.707Z,996.7
2017-07-23T11:29:02.038Z,996.6
2017-07-23T11:34:23.174Z,996.6
2017-07-23T11:39:24.655Z,996.6
2017-07-23T11:44:46.016Z,996.5
2017-07-23T11:49:47.341Z,996.4
2017-07-23T11:55:08.727Z,996.4
2017-07-23T12:00:10.069Z,996.5
2017-07-23T12:05:31.500Z,996.4
2017-07-23T12:10:32.827Z,996.4
2017-07-23T12:15:54.240Z,996.4
2017-07-23T12:20:55.573Z,996.3
2017-07-23T12:26:17.061Z,996.3
2017-07-23T12:31:18.366Z,996.3
2017-07-23T12:36:39.334Z,996.4
2017-07-23T12:41:40.657Z,996.4
2017-07-23T12:47:01.608Z,996.5
2017-07-23T12:52:02.932Z,996.4
2017-07-23T12:57:24.950Z,996.4
2017-07-23T13:02:26.278Z,996.4
2017-07-23T13:07:47.248Z,996.3
2017-07-23T13:12:48.574Z,996.3
2017-07-23T13:18:09.522Z,996.2
2017-07-23T13:23:10.848Z,996.1
2017-07-23T13:28:31.794Z,996.2
2017-07-23T13:33:33.119Z,996.1
2017-07-23T13:38:54.067Z,996.1
2017-07-23T13:43:55.403Z,996.1
2017-07-23T13:49:16.374Z,996.1
2017-07-23T13:54:17.699Z,996.1
2017-07-23T13:59:38.647Z,996.1
2017-07-23T14:04:39.976Z,996.1
2017-07-23T14:10:02.259Z,996.2
2017-07-23T14:15:03.583Z,996.2
2017-07-23T14:20:24.529Z,996.1
2017-07-23T14:25:25.854Z,996.0
2017-07-23T14:30:48.199Z,995.9
